Time;durP1;ratioP1;P1;durP2;ratioP2;P2;SDS_P1;SDS_P2;PMS_P1;PMS_P2;Temp;Humidity;BMP_temperature;BMP_pressure;BME280_temperature;BME280_humidity;BME280_pressure;Samples;Min_cycle;Max_cycle;Signal;HPM_P1;HPM_P2
2022/11/17 00:01:45;;;;;;;;;6.00;6.00;;;;;8.42;67.34;97508.84;6188468;28;96310;-65
2022/11/17 00:04:48;;;;;;;;;8.00;6.40;;;;;8.34;67.67;97507.38;6188118;28;96432;-66
2022/11/17 00:07:51;;;;;;;;;7.00;6.75;;;;;8.37;68.13;97504.19;6170064;28;97752;-65
2022/11/17 00:10:58;;;;;;;;;4.80;4.80;;;;;8.13;68.51;97481.97;6168710;28;98392;-65
2022/11/17 00:17:24;;;;;;;;;9.00;9.00;;;;;8.20;67.94;97497.94;6168928;28;96733;-65
2022/11/17 00:23:48;;;;;;;;;8.00;8.00;;;;;8.06;68.35;97510.81;6188532;28;97704;-64
2022/11/17 00:27:01;;;;;;;;;6.00;6.00;;;;;8.08;68.69;97507.91;6189267;28;96287;-64
2022/11/17 00:30:08;;;;;;;;;6.00;5.75;;;;;7.96;68.98;97499.09;6187534;28;96367;-64
2022/11/17 00:36:37;;;;;;;;;9.00;8.40;;;;;8.10;68.99;97517.38;6187645;28;96245;-64
2022/11/17 00:39:41;;;;;;;;;3.00;3.00;;;;;8.11;68.75;97523.56;6187190;28;96811;-65
2022/11/17 00:42:44;;;;;;;;;7.40;7.40;;;;;8.09;69.23;97526.47;6169088;28;98869;-64
2022/11/17 00:45:49;;;;;;;;;8.00;8.00;;;;;7.84;70.04;97524.09;6186942;28;97033;-64
2022/11/17 00:48:53;;;;;;;;;6.75;6.75;;;;;7.93;69.88;97529.88;6156166;28;96220;-64
2022/11/17 00:51:56;;;;;;;;;7.00;5.60;;;;;8.05;69.93;97527.19;6187347;28;97012;-64
2022/11/17 00:55:00;;;;;;;;;5.00;5.00;;;;;8.12;69.92;97519.78;6168704;28;96725;-64
2022/11/17 00:58:03;;;;;;;;;3.80;3.80;;;;;8.03;68.99;97515.84;6173674;28;96741;-64
2022/11/17 01:01:08;;;;;;;;;7.40;7.00;;;;;8.22;68.76;97519.97;6186553;28;97714;-64
2022/11/17 01:04:13;;;;;;;;;7.00;6.80;;;;;8.15;68.62;97519.34;6166545;28;96231;-64
2022/11/17 01:07:16;;;;;;;;;4.00;4.00;;;;;8.01;69.46;97523.34;6184732;28;96854;-64
2022/11/17 01:10:20;;;;;;;;;6.20;6.20;;;;;8.02;69.18;97525.78;6186602;28;97069;-64
2022/11/17 01:13:23;;;;;;;;;7.00;7.00;;;;;8.12;69.50;97533.22;6187375;28;96324;-64
2022/11/17 01:16:29;;;;;;;;;6.00;6.00;;;;;8.13;69.29;97532.16;6168818;28;98329;-64
2022/11/17 01:19:33;;;;;;;;;3.20;2.80;;;;;8.05;69.49;97528.00;6149799;28;96649;-64
2022/11/17 01:22:36;;;;;;;;;5.00;4.20;;;;;8.18;69.46;97516.16;6164338;28;97093;-64
2022/11/17 01:25:40;;;;;;;;;5.00;5.00;;;;;8.02;69.23;97508.84;6152229;28;98387;-64
2022/11/17 01:28:43;;;;;;;;;5.60;5.60;;;;;8.06;69.57;97496.63;6151522;28;97366;-64
2022/11/17 01:31:52;;;;;;;;;3.80;3.80;;;;;8.15;69.74;97490.63;6191465;28;96892;-64
2022/11/17 01:34:55;;;;;;;;;4.00;4.00;;;;;7.92;69.81;97473.78;6189301;28;96560;-64
2022/11/17 01:37:58;;;;;;;;;5.40;5.00;;;;;7.84;70.58;97477.66;6190821;28;96806;-64
2022/11/17 01:41:04;;;;;;;;;11.40;11.00;;;;;7.99;70.25;97486.00;6191453;28;96215;-64
2022/11/17 01:44:55;;;;;;;;;5.00;5.00;;;;;8.04;70.14;97494.16;6191474;28;96435;-64
2022/11/17 01:48:03;;;;;;;;;8.75;8.75;;;;;8.11;70.26;97508.25;6091157;28;96407;-64
2022/11/17 01:51:06;;;;;;;;;6.00;5.75;;;;;7.92;69.90;97500.59;6091029;28;96225;-64
2022/11/17 01:54:13;;;;;;;;;9.00;8.60;;;;;7.96;70.58;97501.78;6188972;28;96443;-64
2022/11/17 01:57:23;;;;;;;;;8.75;8.00;;;;;7.95;70.19;97509.00;6172509;28;96456;-64
2022/11/17 02:00:29;;;;;;;;;9.00;9.00;;;;;7.94;70.48;97511.94;6188240;28;96654;-63
2022/11/17 02:03:36;;;;;;;;;7.00;6.80;;;;;7.92;70.33;97512.16;6190944;28;96320;-64
2022/11/17 02:06:40;;;;;;;;;5.00;5.00;;;;;8.00;69.99;97503.75;6172938;28;96577;-64
2022/11/17 02:09:44;;;;;;;;;5.00;4.50;;;;;7.95;69.88;97498.28;6190844;28;96606;-64
2022/11/17 02:12:48;;;;;;;;;8.00;8.00;;;;;8.07;69.81;97503.59;6190903;28;96625;-63
2022/11/17 02:15:51;;;;;;;;;3.00;2.75;;;;;8.11;69.64;97513.59;6190878;28;96731;-63
2022/11/17 02:18:56;;;;;;;;;6.40;6.40;;;;;8.07;70.16;97514.31;6190652;28;96194;-63
2022/11/17 02:22:20;;;;;;;;;3.00;3.00;;;;;8.10;69.69;97519.22;6190645;28;96585;-63
2022/11/17 02:25:48;;;;;;;;;5.00;5.00;;;;;8.16;69.42;97508.34;6190387;28;96522;-64
2022/11/17 02:29:02;;;;;;;;;5.00;4.40;;;;;8.31;69.00;97507.03;6179033;28;96860;-64
2022/11/17 02:32:09;;;;;;;;;4.00;3.20;;;;;8.25;68.82;97506.09;6191083;28;96414;-64
2022/11/17 02:35:21;;;;;;;;;5.00;5.00;;;;;8.35;68.56;97500.94;6189801;28;97625;-64
2022/11/17 02:38:32;;;;;;;;;5.00;5.00;;;;;8.36;68.49;97505.25;6189411;28;96765;-64
2022/11/17 02:41:43;;;;;;;;;4.25;4.25;;;;;8.40;68.29;97490.31;6189507;28;97541;-64
2022/11/17 02:44:56;;;;;;;;;6.00;6.00;;;;;8.27;67.72;97466.38;6177632;28;96477;-64
2022/11/17 02:48:03;;;;;;;;;5.00;5.00;;;;;8.14;67.69;97455.97;6159334;28;96657;-63
2022/11/17 02:51:12;;;;;;;;;5.00;5.00;;;;;8.13;68.20;97454.31;6190280;28;96523;-63
2022/11/17 02:54:16;;;;;;;;;6.00;6.00;;;;;8.14;68.10;97445.22;6172067;28;96771;-64
2022/11/17 02:57:30;;;;;;;;;4.75;4.75;;;;;8.04;68.26;97456.59;6189462;28;96226;-64
2022/11/17 03:00:41;;;;;;;;;5.00;5.00;;;;;8.06;67.74;97465.19;6190247;28;96067;-64
2022/11/17 03:04:05;;;;;;;;;5.00;5.00;;;;;8.04;68.19;97482.59;6172230;28;96639;-64
2022/11/17 03:07:27;;;;;;;;;7.00;7.00;;;;;8.07;68.00;97499.03;6190092;28;96322;-64
2022/11/17 03:10:45;;;;;;;;;3.00;3.00;;;;;8.13;67.42;97500.78;6170400;28;96457;-64
2022/11/17 03:13:56;;;;;;;;;4.60;4.60;;;;;8.00;67.10;97508.28;6178062;28;96328;-64
2022/11/17 03:17:05;;;;;;;;;2.00;2.00;;;;;7.96;67.12;97493.72;6176414;28;96299;-64
2022/11/17 03:20:14;;;;;;;;;3.00;3.00;;;;;7.86;67.65;97490.84;6189621;28;96352;-64
2022/11/17 03:23:23;;;;;;;;;7.00;7.00;;;;;7.82;68.08;97491.31;6189770;28;96353;-64
2022/11/17 03:26:33;;;;;;;;;9.00;8.40;;;;;7.82;68.22;97495.84;6171070;28;98287;-64
2022/11/17 03:29:41;;;;;;;;;5.00;5.00;;;;;7.86;68.24;97498.91;6172097;28;96243;-64
2022/11/17 03:32:51;;;;;;;;;3.50;3.50;;;;;7.91;67.74;97505.19;6186333;28;96824;-64
2022/11/17 03:35:59;;;;;;;;;6.00;6.00;;;;;7.93;67.59;97497.69;6159500;28;96276;-64
2022/11/17 03:39:08;;;;;;;;;6.00;5.00;;;;;8.00;67.53;97503.75;6188816;28;96926;-64
2022/11/17 03:42:16;;;;;;;;;2.75;2.00;;;;;7.96;67.47;97491.88;6189046;28;96829;-64
2022/11/17 03:45:23;;;;;;;;;3.20;3.20;;;;;7.86;67.84;97494.34;6189714;28;96401;-64
2022/11/17 03:48:33;;;;;;;;;7.00;7.00;;;;;7.93;67.62;97496.88;6189294;28;96318;-64
2022/11/17 03:51:37;;;;;;;;;5.00;5.00;;;;;7.89;67.81;97495.72;6189296;28;96790;-64
2022/11/17 03:54:41;;;;;;;;;6.20;6.20;;;;;7.80;67.91;97500.66;6187846;28;96475;-64
2022/11/17 03:57:53;;;;;;;;;9.60;9.60;;;;;7.74;68.59;97494.38;6170475;28;96245;-63
2022/11/17 04:01:01;;;;;;;;;6.00;6.00;;;;;7.70;69.15;97505.81;6187912;28;96831;-64
2022/11/17 04:04:06;;;;;;;;;6.40;6.40;;;;;7.75;69.44;97500.56;6188518;28;96242;-64
2022/11/17 04:07:09;;;;;;;;;7.20;7.20;;;;;7.66;69.08;97512.72;6188162;28;96228;-64
2022/11/17 04:10:15;;;;;;;;;5.25;5.25;;;;;7.81;69.01;97497.75;6188861;28;96325;-64
2022/11/17 04:16:39;;;;;;;;;7.00;7.00;;;;;7.68;69.68;97502.53;6186874;28;97627;-63
2022/11/17 04:19:43;;;;;;;;;8.00;8.00;;;;;7.78;70.19;97502.75;6188078;28;96219;-64
2022/11/17 04:23:05;;;;;;;;;7.00;7.00;;;;;7.59;70.31;97495.91;6188200;28;97568;-63
2022/11/17 04:29:32;;;;;;;;;10.00;10.00;;;;;7.72;70.66;97503.72;6188041;28;96373;-64
2022/11/17 04:32:36;;;;;;;;;8.00;8.00;;;;;7.76;70.20;97508.38;6184509;28;96653;-64
2022/11/17 04:35:40;;;;;;;;;6.00;6.00;;;;;7.78;70.39;97511.63;6200720;28;96170;-64
2022/11/17 04:38:45;;;;;;;;;6.60;6.60;;;;;7.83;69.64;97511.72;6188304;28;96291;-64
2022/11/17 04:41:56;;;;;;;;;8.00;8.00;;;;;7.79;69.84;97510.56;6183465;28;96457;-64
2022/11/17 04:44:59;;;;;;;;;8.60;8.60;;;;;7.93;69.86;97521.03;6179323;28;96448;-64
2022/11/17 04:48:02;;;;;;;;;9.00;9.00;;;;;7.89;69.71;97519.88;6183836;28;96208;-64
2022/11/17 04:51:07;;;;;;;;;6.00;6.00;;;;;7.92;69.58;97517.53;6185323;28;96269;-64
2022/11/17 04:54:12;;;;;;;;;8.00;7.60;;;;;8.07;69.39;97520.50;6184101;28;97200;-64
2022/11/17 04:57:15;;;;;;;;;9.60;9.40;;;;;8.14;69.11;97515.00;6192035;28;96516;-63
2022/11/17 05:00:19;;;;;;;;;7.00;7.00;;;;;8.02;68.93;97512.34;6185280;28;98423;-63
2022/11/17 05:03:23;;;;;;;;;7.80;7.80;;;;;8.01;69.01;97513.44;6180374;28;97548;-64
2022/11/17 05:06:30;;;;;;;;;6.00;6.00;;;;;7.82;69.19;97520.00;6187620;28;96376;-64
2022/11/17 05:09:34;;;;;;;;;6.00;6.00;;;;;7.90;68.91;97516.97;6187135;28;98900;-64
2022/11/17 05:19:21;;;;;;;;;7.40;7.40;;;;;8.00;69.84;97517.16;6181516;28;96666;-64
2022/11/17 05:25:46;;;;;;;;;7.40;7.40;;;;;8.11;68.96;97520.88;6155420;28;96645;-64
2022/11/17 05:28:50;;;;;;;;;6.00;6.00;;;;;7.93;69.20;97511.09;6173696;28;96698;-64
2022/11/17 05:31:53;;;;;;;;;7.00;7.00;;;;;8.00;69.23;97508.28;6177135;28;96355;-64
2022/11/17 05:34:57;;;;;;;;;7.60;7.60;;;;;7.86;69.12;97520.34;6167166;28;96411;-64
2022/11/17 05:38:01;;;;;;;;;4.00;4.00;;;;;7.81;69.40;97511.16;6174440;28;96590;-64
2022/11/17 05:41:05;;;;;;;;;7.50;7.50;;;;;7.88;69.31;97516.38;6176359;28;96828;-64
2022/11/17 05:44:09;;;;;;;;;5.80;5.00;;;;;7.73;69.63;97511.50;6170123;28;96613;-64
2022/11/17 05:47:12;;;;;;;;;5.67;5.67;;;;;7.93;69.60;97523.72;6172780;28;96365;-64
2022/11/17 05:50:18;;;;;;;;;6.00;6.00;;;;;7.81;69.24;97519.22;6172430;28;97303;-63
2022/11/17 05:53:24;;;;;;;;;6.00;6.00;;;;;7.63;69.14;97516.66;6177455;28;96808;-65
2022/11/17 05:56:38;;;;;;;;;4.00;4.00;;;;;7.58;69.53;97521.09;6169806;28;96819;-63
2022/11/17 05:59:45;;;;;;;;;7.60;7.60;;;;;7.51;69.99;97526.59;6171044;28;96779;-64
2022/11/17 06:02:54;;;;;;;;;8.40;8.40;;;;;7.61;69.91;97534.88;6172855;28;96476;-64
2022/11/17 06:05:57;;;;;;;;;7.00;7.00;;;;;7.57;69.93;97536.41;6177714;28;97168;-63
2022/11/17 06:09:02;;;;;;;;;8.00;8.00;;;;;7.26;70.58;97534.91;6179762;28;96485;-63
2022/11/17 06:12:06;;;;;;;;;4.40;4.40;;;;;7.49;70.87;97542.09;6173896;28;96317;-64
2022/11/17 06:15:10;;;;;;;;;4.75;4.75;;;;;7.43;70.87;97547.59;6169543;28;96190;-63
2022/11/17 06:18:17;;;;;;;;;7.00;7.00;;;;;7.26;70.78;97529.53;6173349;28;96822;-64
2022/11/17 06:21:21;;;;;;;;;3.80;3.80;;;;;7.64;70.26;97574.63;6174345;28;96610;-64
2022/11/17 06:24:26;;;;;;;;;5.00;5.00;;;;;7.69;69.79;97569.38;6170768;28;96871;-64
2022/11/17 06:27:31;;;;;;;;;8.00;8.00;;;;;7.71;69.33;97555.72;6175103;28;96945;-63
2022/11/17 06:30:36;;;;;;;;;5.00;5.00;;;;;7.69;69.28;97566.69;6176044;28;96222;-64
2022/11/17 06:33:40;;;;;;;;;9.00;9.00;;;;;7.81;68.90;97566.69;6170745;28;96519;-64
2022/11/17 06:36:43;;;;;;;;;6.00;6.00;;;;;7.92;68.13;97570.38;6171625;28;96615;-64
2022/11/17 06:39:48;;;;;;;;;6.00;6.00;;;;;7.95;68.37;97565.38;6172139;28;96389;-64
2022/11/17 06:43:07;;;;;;;;;7.40;7.40;;;;;7.97;67.40;97573.16;6168752;28;97335;-64
2022/11/17 06:46:10;;;;;;;;;6.00;6.00;;;;;7.92;67.79;97570.38;6190400;28;96337;-64
2022/11/17 06:49:13;;;;;;;;;5.50;4.50;;;;;7.93;67.56;97580.88;6187630;28;96151;-64
2022/11/17 06:52:17;;;;;;;;;6.60;6.60;;;;;7.90;67.10;97584.03;6187247;28;97222;-65
2022/11/17 06:55:21;;;;;;;;;6.00;5.00;;;;;7.92;67.27;97592.66;6186278;28;97488;-66
2022/11/17 06:58:25;;;;;;;;;7.00;7.00;;;;;7.73;66.81;97591.16;6170678;28;97103;-65
2022/11/17 07:01:28;;;;;;;;;11.40;11.40;;;;;7.86;67.10;97598.16;6188482;28;96430;-66
2022/11/17 07:04:31;;;;;;;;;10.00;9.50;;;;;7.92;66.92;97589.16;6189444;28;96133;-65
2022/11/17 07:07:35;;;;;;;;;9.67;9.67;;;;;7.76;67.16;97585.34;6171449;28;97132;-65
2022/11/17 07:10:39;;;;;;;;;7.20;7.20;;;;;7.65;67.24;97591.53;6172027;28;96911;-65
2022/11/17 07:13:51;;;;;;;;;6.00;6.00;;;;;7.60;67.89;97588.75;6189861;28;96440;-65
2022/11/17 07:16:54;;;;;;;;;6.20;6.20;;;;;7.60;67.44;97600.28;6189620;28;96924;-65
2022/11/17 07:19:57;;;;;;;;;7.50;7.50;;;;;7.61;67.19;97593.06;6193322;28;96278;-65
2022/11/17 07:23:01;;;;;;;;;7.60;7.60;;;;;7.28;67.27;97575.66;6195305;28;96209;-65
2022/11/17 07:26:06;;;;;;;;;8.00;8.00;;;;;7.38;68.03;97594.66;6188990;28;96583;-65
2022/11/17 07:29:09;;;;;;;;;9.00;9.00;;;;;7.31;68.15;97602.03;6189250;28;96219;-65
2022/11/17 07:32:13;;;;;;;;;8.20;8.20;;;;;6.93;68.37;97585.56;6189373;28;96117;-65
2022/11/17 07:35:17;;;;;;;;;9.00;9.00;;;;;7.19;68.60;97589.66;6170365;28;98893;-65
2022/11/17 07:38:20;;;;;;;;;4.00;4.00;;;;;7.19;68.92;97600.38;6188637;28;96385;-65
2022/11/17 07:41:25;;;;;;;;;10.00;10.00;;;;;7.20;68.07;97602.00;6188368;28;96423;-65
2022/11/17 07:44:28;;;;;;;;;8.00;8.00;;;;;7.31;68.08;97598.53;6190411;28;96239;-65
2022/11/17 07:47:31;;;;;;;;;7.75;7.75;;;;;7.18;68.00;97609.47;6171318;28;96335;-65
2022/11/17 07:50:38;;;;;;;;;8.00;8.00;;;;;7.36;68.50;97614.75;6188091;28;96573;-65
2022/11/17 07:53:42;;;;;;;;;6.00;6.00;;;;;7.52;67.72;97614.06;6188103;28;96534;-65
2022/11/17 07:56:47;;;;;;;;;6.20;6.00;;;;;7.51;67.12;97619.63;6191844;28;96779;-65
2022/11/17 07:59:51;;;;;;;;;7.40;7.40;;;;;7.35;67.21;97611.22;6187543;28;96431;-65
2022/11/17 08:02:55;;;;;;;;;7.00;7.00;;;;;7.35;67.21;97618.47;6161348;28;97283;-65
2022/11/17 08:06:01;;;;;;;;;6.60;6.40;;;;;7.37;67.08;97616.38;6162274;28;98050;-65
2022/11/17 08:09:05;;;;;;;;;6.00;6.00;;;;;7.54;67.27;97611.13;6186688;28;96358;-65
2022/11/17 08:12:09;;;;;;;;;7.00;7.00;;;;;7.54;66.69;97606.56;6188407;28;97006;-65
2022/11/17 08:15:13;;;;;;;;;8.00;8.00;;;;;7.39;66.66;97604.34;6188436;28;96465;-66
2022/11/17 08:18:16;;;;;;;;;4.60;4.60;;;;;7.43;67.03;97601.22;6188734;28;96404;-66
2022/11/17 08:21:20;;;;;;;;;7.00;7.00;;;;;7.53;66.90;97604.13;6188636;28;96235;-65
2022/11/17 08:24:23;;;;;;;;;6.00;6.00;;;;;7.31;67.29;97601.22;6170725;28;96468;-65
2022/11/17 08:27:28;;;;;;;;;9.50;9.00;;;;;7.16;67.66;97604.34;6188110;28;96833;-66
2022/11/17 08:30:33;;;;;;;;;5.80;5.40;;;;;6.93;68.10;97613.16;6188200;28;96810;-65
2022/11/17 08:33:37;;;;;;;;;6.00;5.75;;;;;6.93;69.17;97610.47;6186149;28;96358;-65
2022/11/17 08:36:40;;;;;;;;;7.00;7.00;;;;;7.00;68.71;97612.22;6187801;28;96268;-65
2022/11/17 08:39:43;;;;;;;;;11.00;11.00;;;;;7.10;69.00;97607.94;6187658;28;96348;-65
2022/11/17 08:42:53;;;;;;;;;9.00;8.00;;;;;6.95;69.38;97607.56;6186165;28;96869;-65
2022/11/17 08:46:03;;;;;;;;;5.00;5.00;;;;;6.92;69.41;97616.06;6186262;28;96530;-65
2022/11/17 08:49:06;;;;;;;;;9.20;9.00;;;;;7.08;69.60;97615.41;6185922;28;96943;-65
2022/11/17 08:52:09;;;;;;;;;6.00;6.00;;;;;7.31;68.82;97625.34;6167735;28;96795;-65
2022/11/17 08:55:13;;;;;;;;;7.00;7.00;;;;;7.20;67.51;97621.59;6185755;28;96245;-65
2022/11/17 08:58:18;;;;;;;;;6.00;5.50;;;;;7.34;67.70;97625.69;6186748;28;96042;-65
2022/11/17 09:01:21;;;;;;;;;8.00;7.60;;;;;7.46;67.61;97638.28;6187731;28;96237;-65
2022/11/17 09:04:24;;;;;;;;;5.00;5.00;;;;;7.56;67.02;97641.22;6187761;28;96255;-65
2022/11/17 09:07:27;;;;;;;;;6.00;6.00;;;;;7.44;67.55;97635.00;6187783;28;96268;-65
2022/11/17 09:10:37;;;;;;;;;8.60;8.60;;;;;7.22;66.86;97637.44;6188164;28;96816;-65
2022/11/17 09:13:42;;;;;;;;;4.00;4.00;;;;;7.22;67.24;97626.72;6187687;28;96786;-65
2022/11/17 09:16:45;;;;;;;;;9.60;8.60;;;;;7.48;67.44;97628.94;6187706;28;96492;-65
2022/11/17 09:19:48;;;;;;;;;8.50;8.50;;;;;7.49;67.32;97625.22;6187453;28;96308;-65
2022/11/17 09:22:52;;;;;;;;;5.00;5.00;;;;;7.58;67.40;97629.19;6187642;28;96871;-65
2022/11/17 09:25:55;;;;;;;;;10.00;10.00;;;;;7.50;66.65;97631.41;6187078;28;96348;-65
2022/11/17 09:29:02;;;;;;;;;6.00;6.00;;;;;7.30;67.11;97618.34;6186907;28;97539;-65
2022/11/17 09:32:06;;;;;;;;;9.00;7.40;;;;;7.33;68.07;97620.56;6186807;28;97073;-66
2022/11/17 09:35:09;;;;;;;;;6.60;6.60;;;;;7.40;67.33;97634.66;6187230;28;96272;-66
2022/11/17 09:38:13;;;;;;;;;3.25;3.25;;;;;7.16;66.59;97639.19;6186760;28;96349;-65
2022/11/17 09:41:28;;;;;;;;;5.40;5.00;;;;;7.03;67.53;97626.00;6200833;28;96306;-65
2022/11/17 09:44:39;;;;;;;;;4.50;4.00;;;;;7.12;67.80;97627.28;6212247;28;96270;-65
2022/11/17 09:47:48;;;;;;;;;9.60;9.60;;;;;7.29;67.58;97619.38;6208904;28;96792;-66
2022/11/17 09:50:58;;;;;;;;;5.00;5.00;;;;;7.43;67.06;97634.19;6191592;28;96240;-66
2022/11/17 09:54:07;;;;;;;;;11.60;11.00;;;;;7.49;67.01;97629.78;6191442;28;96205;-65
2022/11/17 09:57:21;;;;;;;;;9.00;8.00;;;;;7.44;66.55;97635.84;6190833;28;96276;-65
2022/11/17 10:00:26;;;;;;;;;6.00;6.00;;;;;7.63;66.82;97634.66;6172847;28;97379;-65
2022/11/17 10:03:32;;;;;;;;;9.00;9.00;;;;;7.44;66.51;97616.25;6191617;28;96216;-65
2022/11/17 10:06:44;;;;;;;;;7.00;6.00;;;;;7.47;66.88;97631.88;6191380;28;96318;-65
2022/11/17 10:09:50;;;;;;;;;8.00;8.00;;;;;7.42;65.71;97629.09;6195074;28;96314;-66
2022/11/17 10:12:58;;;;;;;;;6.00;6.00;;;;;7.56;66.21;97631.31;6201945;28;96234;-65
2022/11/17 10:16:05;;;;;;;;;7.00;6.00;;;;;7.57;65.91;97626.75;6199382;28;96296;-65
2022/11/17 10:19:15;;;;;;;;;9.00;9.00;;;;;7.50;65.25;97610.78;6195350;28;96351;-65
2022/11/17 10:22:34;;;;;;;;;6.00;5.00;;;;;7.41;65.68;97617.53;6198866;28;97418;-65
2022/11/17 10:25:39;;;;;;;;;4.40;4.40;;;;;7.30;65.52;97619.16;6175605;28;96728;-65
2022/11/17 10:28:44;;;;;;;;;3.40;3.40;;;;;7.07;65.18;97600.38;6198864;28;96216;-66
2022/11/17 10:31:49;;;;;;;;;6.50;6.50;;;;;7.30;64.56;97612.97;6190633;28;96483;-65
2022/11/17 10:34:53;;;;;;;;;7.00;7.00;;;;;7.23;64.97;97614.97;6190622;28;96800;-65
2022/11/17 10:37:58;;;;;;;;;9.00;9.00;;;;;7.22;65.75;97621.38;6190480;28;96246;-65
2022/11/17 10:41:03;;;;;;;;;5.40;5.40;;;;;7.19;65.54;97616.44;6171852;28;97311;-65
2022/11/17 10:44:15;;;;;;;;;9.00;9.00;;;;;7.35;65.99;97623.81;6190398;28;96298;-66
2022/11/17 10:47:28;;;;;;;;;7.60;5.80;;;;;7.24;65.22;97632.66;6173353;28;96913;-65
2022/11/17 10:50:32;;;;;;;;;8.60;8.60;;;;;7.21;64.53;97635.81;6190321;28;96315;-66
2022/11/17 10:53:37;;;;;;;;;6.40;6.40;;;;;7.27;64.83;97632.22;6189945;28;96335;-66
2022/11/17 10:56:51;;;;;;;;;8.60;8.00;;;;;7.23;65.48;97633.72;6195885;28;96714;-65
2022/11/17 10:59:56;;;;;;;;;9.00;9.00;;;;;7.32;65.54;97646.56;6198771;28;96210;-65
2022/11/17 11:03:19;;;;;;;;;8.20;8.20;;;;;7.31;64.41;97642.25;6190168;28;96069;-65
2022/11/17 11:06:25;;;;;;;;;9.75;9.75;;;;;7.29;65.17;97635.47;6189943;28;96248;-66
2022/11/17 11:09:30;;;;;;;;;8.50;8.00;;;;;7.40;65.13;97626.63;6171101;28;96816;-65
2022/11/17 11:12:43;;;;;;;;;9.60;9.60;;;;;7.31;64.11;97636.88;6172298;28;97168;-65
2022/11/17 11:15:46;;;;;;;;;6.20;6.20;;;;;7.31;64.72;97628.84;6189150;28;96885;-65
2022/11/17 11:18:52;;;;;;;;;9.00;9.00;;;;;7.29;64.40;97638.13;6171453;28;96609;-65
2022/11/17 11:22:23;;;;;;;;;10.00;8.60;;;;;7.39;64.00;97641.88;6189699;28;96378;-65
2022/11/17 11:25:36;;;;;;;;;7.00;6.00;;;;;7.24;63.75;97640.69;6169011;28;96720;-65
2022/11/17 11:28:52;;;;;;;;;10.60;10.60;;;;;7.28;64.07;97637.31;6189794;28;96283;-66
2022/11/17 11:32:20;;;;;;;;;10.00;10.00;;;;;7.26;63.97;97643.97;6171224;28;96715;-66
2022/11/17 11:35:38;;;;;;;;;8.50;8.00;;;;;7.32;64.34;97638.53;6189323;28;96978;-65
2022/11/17 11:38:52;;;;;;;;;9.00;9.00;;;;;7.23;63.52;97639.09;6189357;28;96575;-65
2022/11/17 11:42:19;;;;;;;;;8.60;8.00;;;;;7.38;64.22;97639.44;6189665;28;96294;-65
2022/11/17 11:45:29;;;;;;;;;7.00;7.00;;;;;7.50;63.82;97645.63;6198748;28;96233;-65
2022/11/17 11:48:35;;;;;;;;;9.00;9.00;;;;;7.54;63.38;97644.13;6210839;28;96184;-65
2022/11/17 11:51:40;;;;;;;;;12.00;11.50;;;;;7.57;63.39;97645.53;6186378;28;99142;-65
2022/11/17 11:54:50;;;;;;;;;10.00;9.75;;;;;7.78;63.59;97650.28;6188446;28;96302;-66
2022/11/17 11:58:01;;;;;;;;;11.25;11.25;;;;;7.94;63.21;97641.53;6188595;28;96773;-65
2022/11/17 12:01:08;;;;;;;;;7.00;7.00;;;;;7.84;62.93;97650.19;6188053;28;97309;-65
2022/11/17 12:04:24;;;;;;;;;11.40;11.40;;;;;8.02;63.21;97646.53;6169461;28;96402;-65
2022/11/17 12:07:38;;;;;;;;;7.00;6.00;;;;;7.95;61.63;97647.72;6172334;28;96617;-67
2022/11/17 12:10:49;;;;;;;;;13.00;13.00;;;;;7.99;61.70;97643.53;6178758;28;96248;-67
2022/11/17 12:13:54;;;;;;;;;8.40;8.40;;;;;7.63;61.05;97633.84;6172150;28;96942;-67
2022/11/17 12:17:03;;;;;;;;;10.00;10.00;;;;;7.53;61.89;97634.44;6166993;28;97387;-66
2022/11/17 12:20:50;;;;;;;;;8.00;8.00;;;;;7.59;62.69;97628.16;6186841;28;96724;-66
2022/11/17 12:24:13;;;;;;;;;7.00;7.00;;;;;7.53;62.76;97629.06;6186819;28;97177;-65
2022/11/17 12:27:42;;;;;;;;;8.00;8.00;;;;;7.61;62.92;97634.09;6166377;28;96765;-65
2022/11/17 12:30:54;;;;;;;;;8.25;8.25;;;;;7.62;62.73;97643.78;6184864;28;97568;-65
2022/11/17 12:34:26;;;;;;;;;8.40;8.40;;;;;7.65;61.72;97655.91;6185265;28;96504;-66
2022/11/17 12:37:29;;;;;;;;;5.40;5.00;;;;;7.66;61.86;97655.69;6188352;28;96317;-65
2022/11/17 12:40:45;;;;;;;;;11.00;11.00;;;;;7.77;61.65;97651.38;6186422;28;96301;-66
2022/11/17 12:43:48;;;;;;;;;11.00;10.00;;;;;7.77;61.87;97651.38;6173062;28;96507;-65
2022/11/17 12:46:59;;;;;;;;;6.80;6.80;;;;;7.57;61.59;97657.09;6153836;28;96626;-65
2022/11/17 12:50:36;;;;;;;;;10.00;9.00;;;;;7.36;62.23;97657.63;6184958;28;96345;-65
2022/11/17 12:53:56;;;;;;;;;6.40;6.40;;;;;7.41;62.68;97657.75;6186151;28;96929;-65
2022/11/17 12:57:09;;;;;;;;;6.20;5.20;;;;;7.28;62.59;97648.03;6186088;28;97516;-65
2022/11/17 13:00:19;;;;;;;;;8.00;7.00;;;;;7.31;62.79;97655.66;6180985;28;96318;-65
2022/11/17 13:03:28;;;;;;;;;6.00;6.00;;;;;7.17;63.19;97658.75;6182703;28;97103;-66
2022/11/17 13:06:31;;;;;;;;;11.00;10.80;;;;;7.00;63.48;97636.34;6187467;28;96262;-66
2022/11/17 13:09:38;;;;;;;;;9.00;7.00;;;;;7.17;63.37;97669.47;6168947;28;96068;-66
2022/11/17 13:12:43;;;;;;;;;12.00;12.00;;;;;7.28;63.56;97661.44;6187671;28;97528;-66
2022/11/17 13:15:51;;;;;;;;;13.00;13.00;;;;;7.24;63.87;97665.63;6168941;28;99117;-66
2022/11/17 13:18:54;;;;;;;;;9.25;9.25;;;;;7.49;63.24;97678.03;6187642;28;96971;-66
2022/11/17 13:21:59;;;;;;;;;12.00;12.00;;;;;7.52;62.36;97667.69;6186061;28;96337;-65
2022/11/17 13:25:20;;;;;;;;;9.00;9.00;;;;;7.34;63.11;97647.13;6173471;28;96549;-66
2022/11/17 13:28:30;;;;;;;;;10.00;10.00;;;;;7.49;61.80;97670.81;6163356;28;97833;-65
2022/11/17 13:31:34;;;;;;;;;6.00;5.50;;;;;7.51;62.35;97673.28;6167791;28;96918;-65
2022/11/17 13:34:46;;;;;;;;;8.80;7.80;;;;;7.44;62.00;97669.88;6166928;28;96575;-66
2022/11/17 13:38:04;;;;;;;;;9.00;9.00;;;;;7.37;62.27;97670.81;6188192;28;96821;-66
2022/11/17 13:41:07;;;;;;;;;8.00;8.00;;;;;7.32;61.79;97670.69;6191500;28;96296;-65
2022/11/17 13:44:16;;;;;;;;;8.00;8.00;;;;;7.30;61.99;97661.22;6191545;28;96296;-65
2022/11/17 13:47:20;;;;;;;;;11.75;9.75;;;;;7.46;61.94;97675.81;6191177;28;96426;-65
2022/11/17 13:50:35;;;;;;;;;11.00;10.60;;;;;7.46;62.03;97682.00;6191193;28;96198;-65
2022/11/17 13:53:43;;;;;;;;;11.00;10.00;;;;;7.52;62.39;97677.59;6190805;28;97066;-65
2022/11/17 13:56:51;;;;;;;;;8.60;8.60;;;;;7.62;62.49;97683.22;6190311;28;96685;-66
2022/11/17 13:59:57;;;;;;;;;7.50;7.00;;;;;7.61;61.61;97677.03;6191274;28;96542;-65
2022/11/17 14:03:03;;;;;;;;;13.00;13.00;;;;;7.69;61.66;97679.34;6190586;28;96226;-65
2022/11/17 14:06:09;;;;;;;;;9.00;9.00;;;;;7.66;61.00;97676.31;6188538;28;96565;-65
2022/11/17 14:09:12;;;;;;;;;12.00;11.80;;;;;7.68;61.20;97684.94;6163924;28;96752;-65
2022/11/17 14:12:16;;;;;;;;;12.00;11.25;;;;;7.47;61.07;97683.66;6161714;28;96637;-65
2022/11/17 14:15:24;;;;;;;;;9.40;9.40;;;;;7.43;62.07;97669.03;6189487;28;96198;-65
2022/11/17 14:18:35;;;;;;;;;9.00;9.00;;;;;7.34;62.58;97663.22;6189750;28;96308;-66
2022/11/17 14:21:58;;;;;;;;;7.80;7.40;;;;;7.15;62.77;97658.16;6172634;28;96872;-65
2022/11/17 14:25:01;;;;;;;;;10.80;10.80;;;;;7.18;62.53;97665.75;6190532;28;96517;-65
2022/11/17 14:28:11;;;;;;;;;11.40;10.00;;;;;7.21;63.39;97671.47;6171618;28;98430;-66
2022/11/17 14:31:15;;;;;;;;;9.00;9.00;;;;;7.12;62.43;97664.81;6190301;28;96302;-65
2022/11/17 14:34:19;;;;;;;;;9.00;8.00;;;;;7.18;62.55;97677.31;6189612;28;96887;-65
2022/11/17 14:37:22;;;;;;;;;9.20;9.20;;;;;7.23;62.77;97676.63;6189628;28;96271;-65
2022/11/17 14:40:26;;;;;;;;;11.00;11.00;;;;;7.32;62.31;97684.09;6171748;28;98340;-65
2022/11/17 14:43:29;;;;;;;;;15.50;15.00;;;;;7.38;61.66;97688.50;6189084;28;96556;-65
2022/11/17 14:46:34;;;;;;;;;14.00;13.00;;;;;7.36;61.84;97679.91;6172446;28;96213;-65
2022/11/17 14:49:37;;;;;;;;;12.60;12.40;;;;;7.19;61.55;97676.22;6189505;28;96552;-66
2022/11/17 14:52:42;;;;;;;;;12.00;12.00;;;;;7.25;62.43;97678.00;6189532;28;96169;-65
2022/11/17 14:55:46;;;;;;;;;14.40;14.40;;;;;7.28;62.79;97663.34;6184961;28;96413;-65
2022/11/17 14:58:54;;;;;;;;;8.60;8.60;;;;;7.21;62.42;97666.13;6188404;28;96424;-64
2022/11/17 15:01:58;;;;;;;;;8.60;8.20;;;;;7.34;63.25;97657.03;6170928;28;96643;-66
2022/11/17 15:05:02;;;;;;;;;13.80;13.80;;;;;7.31;62.31;97649.47;6188591;28;96315;-66
2022/11/17 15:08:06;;;;;;;;;10.00;10.00;;;;;7.28;61.94;97656.09;6170175;28;97141;-65
2022/11/17 15:11:14;;;;;;;;;12.80;12.20;;;;;7.16;62.11;97657.13;6161268;28;97743;-65
2022/11/17 15:14:17;;;;;;;;;15.00;15.00;;;;;7.14;62.59;97648.47;6146695;28;96813;-65
2022/11/17 15:17:23;;;;;;;;;13.40;13.40;;;;;7.17;62.30;97654.22;6164776;28;96210;-66